sensor_id;sensor_type;location;lat;lon;timestamp;pressure;altitude;pressure_sealevel;temperature;humidity
61697;BME280;47610;52.252;20.922;2022-09-09T00:01:23;99995.16;;;13.23;64.10
61697;BME280;47610;52.252;20.922;2022-09-09T00:04:20;99991.91;;;13.12;64.33
61697;BME280;47610;52.252;20.922;2022-09-09T00:07:15;99991.39;;;13.07;64.63
61697;BME280;47610;52.252;20.922;2022-09-09T00:10:13;99987.08;;;13.01;65.22
61697;BME280;47610;52.252;20.922;2022-09-09T00:13:11;99989.18;;;12.90;66.29
61697;BME280;47610;52.252;20.922;2022-09-09T00:16:07;99990.76;;;12.77;66.58
61697;BME280;47610;52.252;20.922;2022-09-09T00:19:02;99985.49;;;12.67;67.23
61697;BME280;47610;52.252;20.922;2022-09-09T00:21:58;99983.75;;;12.62;66.82
61697;BME280;47610;52.252;20.922;2022-09-09T00:24:49;99980.90;;;12.57;67.97
61697;BME280;47610;52.252;20.922;2022-09-09T00:27:41;99980.19;;;12.49;68.26
61697;BME280;47610;52.252;20.922;2022-09-09T00:30:34;99986.89;;;12.43;68.91
61697;BME280;47610;52.252;20.922;2022-09-09T00:33:24;99983.45;;;12.37;69.62
61697;BME280;47610;52.252;20.922;2022-09-09T00:36:16;99980.80;;;12.33;69.79
61697;BME280;47610;52.252;20.922;2022-09-09T00:39:08;99984.20;;;12.30;70.48
61697;BME280;47610;52.252;20.922;2022-09-09T00:42:01;99980.86;;;12.24;70.66
61697;BME280;47610;52.252;20.922;2022-09-09T00:44:58;99982.46;;;12.19;70.87
61697;BME280;47610;52.252;20.922;2022-09-09T00:47:49;99979.05;;;12.19;70.75
61697;BME280;47610;52.252;20.922;2022-09-09T00:50:47;99978.79;;;12.18;71.27
61697;BME280;47610;52.252;20.922;2022-09-09T00:53:51;99981.63;;;12.17;71.73
61697;BME280;47610;52.252;20.922;2022-09-09T00:56:49;99977.52;;;12.14;71.91
61697;BME280;47610;52.252;20.922;2022-09-09T00:59:47;99980.25;;;12.15;71.80
61697;BME280;47610;52.252;20.922;2022-09-09T01:02:42;99980.08;;;12.16;72.15
61697;BME280;47610;52.252;20.922;2022-09-09T01:05:41;99980.48;;;12.15;72.21
61697;BME280;47610;52.252;20.922;2022-09-09T01:08:43;99983.80;;;12.15;72.35
61697;BME280;47610;52.252;20.922;2022-09-09T01:11:42;99988.17;;;12.17;72.62
61697;BME280;47610;52.252;20.922;2022-09-09T01:14:40;99984.62;;;12.20;72.71
61697;BME280;47610;52.252;20.922;2022-09-09T01:17:33;99979.29;;;12.18;73.20
61697;BME280;47610;52.252;20.922;2022-09-09T01:20:25;99973.05;;;12.14;73.56
61697;BME280;47610;52.252;20.922;2022-09-09T01:23:30;99971.92;;;12.11;73.39
61697;BME280;47610;52.252;20.922;2022-09-09T01:26:27;99967.71;;;12.09;73.59
61697;BME280;47610;52.252;20.922;2022-09-09T01:29:17;99967.27;;;12.07;74.02
61697;BME280;47610;52.252;20.922;2022-09-09T01:32:39;99964.00;;;12.05;73.98
61697;BME280;47610;52.252;20.922;2022-09-09T01:35:31;99959.75;;;12.04;74.58
61697;BME280;47610;52.252;20.922;2022-09-09T01:38:20;99962.72;;;12.03;74.46
61697;BME280;47610;52.252;20.922;2022-09-09T01:41:07;99963.00;;;12.02;74.60
61697;BME280;47610;52.252;20.922;2022-09-09T01:43:55;99961.80;;;12.02;74.81
61697;BME280;47610;52.252;20.922;2022-09-09T01:46:43;99962.36;;;12.01;74.95
61697;BME280;47610;52.252;20.922;2022-09-09T01:49:31;99964.84;;;12.00;74.90
61697;BME280;47610;52.252;20.922;2022-09-09T01:52:18;99964.77;;;12.02;75.02
61697;BME280;47610;52.252;20.922;2022-09-09T01:55:07;99969.55;;;12.04;74.83
61697;BME280;47610;52.252;20.922;2022-09-09T01:58:04;99970.19;;;12.05;74.94
61697;BME280;47610;52.252;20.922;2022-09-09T02:01:02;99973.31;;;12.06;75.22
61697;BME280;47610;52.252;20.922;2022-09-09T02:03:57;99965.94;;;12.05;75.68
61697;BME280;47610;52.252;20.922;2022-09-09T02:06:47;99961.54;;;12.04;75.36
61697;BME280;47610;52.252;20.922;2022-09-09T02:09:35;99963.12;;;12.05;75.51
61697;BME280;47610;52.252;20.922;2022-09-09T02:12:25;99963.30;;;12.03;75.41
61697;BME280;47610;52.252;20.922;2022-09-09T02:15:20;99963.80;;;12.05;75.41
61697;BME280;47610;52.252;20.922;2022-09-09T02:18:11;99965.00;;;12.05;75.61
61697;BME280;47610;52.252;20.922;2022-09-09T02:21:01;99952.48;;;12.04;75.66
61697;BME280;47610;52.252;20.922;2022-09-09T02:23:50;99953.18;;;12.05;75.68
61697;BME280;47610;52.252;20.922;2022-09-09T02:26:41;99947.61;;;12.05;75.77
61697;BME280;47610;52.252;20.922;2022-09-09T02:29:34;99948.34;;;12.05;76.26
61697;BME280;47610;52.252;20.922;2022-09-09T02:32:23;99952.52;;;12.06;76.01
61697;BME280;47610;52.252;20.922;2022-09-09T02:35:14;99952.11;;;12.03;76.01
61697;BME280;47610;52.252;20.922;2022-09-09T02:38:05;99956.23;;;12.01;76.41
61697;BME280;47610;52.252;20.922;2022-09-09T02:40:53;99963.61;;;12.02;76.30
61697;BME280;47610;52.252;20.922;2022-09-09T02:43:42;99966.08;;;12.03;76.26
61697;BME280;47610;52.252;20.922;2022-09-09T02:46:46;99970.05;;;12.08;75.98
61697;BME280;47610;52.252;20.922;2022-09-09T02:49:43;99969.02;;;12.09;76.86
61697;BME280;47610;52.252;20.922;2022-09-09T02:52:42;99973.77;;;12.10;76.47
61697;BME280;47610;52.252;20.922;2022-09-09T02:55:39;99975.11;;;12.13;76.26
61697;BME280;47610;52.252;20.922;2022-09-09T02:58:27;99974.50;;;12.16;76.29
61697;BME280;47610;52.252;20.922;2022-09-09T03:01:14;99972.70;;;12.19;76.10
61697;BME280;47610;52.252;20.922;2022-09-09T03:04:02;99971.14;;;12.21;76.04
61697;BME280;47610;52.252;20.922;2022-09-09T03:06:51;99967.09;;;12.18;76.34
61697;BME280;47610;52.252;20.922;2022-09-09T03:09:38;99963.13;;;12.17;76.49
61697;BME280;47610;52.252;20.922;2022-09-09T03:12:25;99962.95;;;12.15;76.68
61697;BME280;47610;52.252;20.922;2022-09-09T03:15:13;99964.56;;;12.13;76.60
61697;BME280;47610;52.252;20.922;2022-09-09T03:18:00;99964.70;;;12.11;76.69
61697;BME280;47610;52.252;20.922;2022-09-09T03:20:47;99965.73;;;12.13;76.58
61697;BME280;47610;52.252;20.922;2022-09-09T03:23:34;99967.02;;;12.15;76.91
61697;BME280;47610;52.252;20.922;2022-09-09T03:26:21;99966.12;;;12.16;76.87
61697;BME280;47610;52.252;20.922;2022-09-09T03:29:09;99963.35;;;12.17;76.81
61697;BME280;47610;52.252;20.922;2022-09-09T03:31:56;99964.16;;;12.18;77.01
61697;BME280;47610;52.252;20.922;2022-09-09T03:34:44;99963.86;;;12.17;77.51
61697;BME280;47610;52.252;20.922;2022-09-09T03:37:31;99959.52;;;12.14;77.40
61697;BME280;47610;52.252;20.922;2022-09-09T03:40:19;99958.02;;;12.15;77.41
61697;BME280;47610;52.252;20.922;2022-09-09T03:43:06;99957.91;;;12.15;77.56
61697;BME280;47610;52.252;20.922;2022-09-09T03:45:54;99958.82;;;12.13;77.50
61697;BME280;47610;52.252;20.922;2022-09-09T03:48:41;99961.30;;;12.15;77.74
61697;BME280;47610;52.252;20.922;2022-09-09T03:51:28;99967.17;;;12.16;77.71
61697;BME280;47610;52.252;20.922;2022-09-09T03:54:17;99970.42;;;12.16;77.76
61697;BME280;47610;52.252;20.922;2022-09-09T03:57:04;99970.36;;;12.17;77.70
61697;BME280;47610;52.252;20.922;2022-09-09T03:59:51;99971.27;;;12.19;77.62
61697;BME280;47610;52.252;20.922;2022-09-09T04:02:39;99974.19;;;12.20;77.84
61697;BME280;47610;52.252;20.922;2022-09-09T04:05:29;99972.75;;;12.20;77.68
61697;BME280;47610;52.252;20.922;2022-09-09T04:08:16;99965.73;;;12.17;77.71
61697;BME280;47610;52.252;20.922;2022-09-09T04:11:04;99967.80;;;12.18;77.73
61697;BME280;47610;52.252;20.922;2022-09-09T04:13:51;99967.50;;;12.21;78.19
61697;BME280;47610;52.252;20.922;2022-09-09T04:16:38;99968.50;;;12.19;78.29
61697;BME280;47610;52.252;20.922;2022-09-09T04:19:25;99965.41;;;12.19;78.36
61697;BME280;47610;52.252;20.922;2022-09-09T04:22:12;99964.20;;;12.20;78.39
61697;BME280;47610;52.252;20.922;2022-09-09T04:24:59;99966.33;;;12.22;78.57
61697;BME280;47610;52.252;20.922;2022-09-09T04:27:46;99966.37;;;12.23;78.47
61697;BME280;47610;52.252;20.922;2022-09-09T04:30:33;99968.71;;;12.24;78.55
61697;BME280;47610;52.252;20.922;2022-09-09T04:33:23;99966.05;;;12.25;78.84
61697;BME280;47610;52.252;20.922;2022-09-09T04:36:10;99970.16;;;12.28;78.81
61697;BME280;47610;52.252;20.922;2022-09-09T04:38:57;99970.75;;;12.30;78.77
61697;BME280;47610;52.252;20.922;2022-09-09T04:41:45;99969.86;;;12.33;78.96
61697;BME280;47610;52.252;20.922;2022-09-09T04:44:32;99968.60;;;12.33;79.01
61697;BME280;47610;52.252;20.922;2022-09-09T04:47:19;99975.02;;;12.31;78.94
61697;BME280;47610;52.252;20.922;2022-09-09T04:50:09;99973.86;;;12.31;78.81
61697;BME280;47610;52.252;20.922;2022-09-09T04:52:56;99972.33;;;12.31;78.92
61697;BME280;47610;52.252;20.922;2022-09-09T04:55:46;99983.98;;;12.38;79.10
61697;BME280;47610;52.252;20.922;2022-09-09T04:58:33;99987.91;;;12.42;79.39
61697;BME280;47610;52.252;20.922;2022-09-09T05:01:23;99986.55;;;12.40;79.39
61697;BME280;47610;52.252;20.922;2022-09-09T05:04:10;99988.44;;;12.39;79.27
61697;BME280;47610;52.252;20.922;2022-09-09T05:06:58;99988.64;;;12.41;79.32
61697;BME280;47610;52.252;20.922;2022-09-09T05:09:44;99987.70;;;12.41;79.45
61697;BME280;47610;52.252;20.922;2022-09-09T05:12:31;99991.38;;;12.43;79.24
61697;BME280;47610;52.252;20.922;2022-09-09T05:15:18;99992.13;;;12.44;79.25
61697;BME280;47610;52.252;20.922;2022-09-09T05:18:05;99990.02;;;12.44;79.31
61697;BME280;47610;52.252;20.922;2022-09-09T05:20:52;99992.66;;;12.45;79.14
61697;BME280;47610;52.252;20.922;2022-09-09T05:23:45;99987.46;;;12.46;79.24
61697;BME280;47610;52.252;20.922;2022-09-09T05:26:33;99988.90;;;12.46;79.27
61697;BME280;47610;52.252;20.922;2022-09-09T05:29:19;99989.11;;;12.46;79.42
61697;BME280;47610;52.252;20.922;2022-09-09T05:32:08;99995.46;;;12.50;79.27
61697;BME280;47610;52.252;20.922;2022-09-09T05:34:54;99996.33;;;12.52;79.46
61697;BME280;47610;52.252;20.922;2022-09-09T05:37:42;99993.30;;;12.51;79.59
61697;BME280;47610;52.252;20.922;2022-09-09T05:40:30;99994.73;;;12.55;79.34
61697;BME280;47610;52.252;20.922;2022-09-09T05:43:17;99990.39;;;12.61;79.50
61697;BME280;47610;52.252;20.922;2022-09-09T05:46:05;99990.98;;;12.66;79.53
61697;BME280;47610;52.252;20.922;2022-09-09T05:48:53;99989.44;;;12.66;79.42
61697;BME280;47610;52.252;20.922;2022-09-09T05:51:43;99986.39;;;12.67;79.47
61697;BME280;47610;52.252;20.922;2022-09-09T05:54:29;99993.77;;;12.71;79.52
61697;BME280;47610;52.252;20.922;2022-09-09T05:57:17;99996.10;;;12.70;79.52
61697;BME280;47610;52.252;20.922;2022-09-09T06:00:09;99990.45;;;12.72;79.42
61697;BME280;47610;52.252;20.922;2022-09-09T06:02:56;99990.09;;;12.74;79.35
61697;BME280;47610;52.252;20.922;2022-09-09T06:05:43;99996.09;;;12.75;79.49
61697;BME280;47610;52.252;20.922;2022-09-09T06:08:34;99998.45;;;12.76;79.08
61697;BME280;47610;52.252;20.922;2022-09-09T06:11:23;100003.29;;;12.78;79.34
61697;BME280;47610;52.252;20.922;2022-09-09T06:14:10;100005.48;;;12.83;79.66
61697;BME280;47610;52.252;20.922;2022-09-09T06:16:58;100007.80;;;12.85;79.62
61697;BME280;47610;52.252;20.922;2022-09-09T06:19:44;100010.45;;;12.87;79.38
61697;BME280;47610;52.252;20.922;2022-09-09T06:22:31;100016.88;;;12.89;79.18
61697;BME280;47610;52.252;20.922;2022-09-09T06:25:19;100014.57;;;12.88;79.32
61697;BME280;47610;52.252;20.922;2022-09-09T06:28:06;100017.10;;;12.89;79.03
61697;BME280;47610;52.252;20.922;2022-09-09T06:31:00;100023.35;;;12.92;79.14
61697;BME280;47610;52.252;20.922;2022-09-09T06:33:47;100020.86;;;12.92;79.36
61697;BME280;47610;52.252;20.922;2022-09-09T06:36:37;100020.84;;;12.93;79.19
61697;BME280;47610;52.252;20.922;2022-09-09T06:39:24;100014.61;;;12.96;79.17
61697;BME280;47610;52.252;20.922;2022-09-09T06:42:11;100015.59;;;12.97;79.32
61697;BME280;47610;52.252;20.922;2022-09-09T06:44:58;100019.28;;;13.01;79.10
61697;BME280;47610;52.252;20.922;2022-09-09T06:47:45;100018.30;;;13.00;79.30
61697;BME280;47610;52.252;20.922;2022-09-09T06:50:32;100027.37;;;13.00;79.53
61697;BME280;47610;52.252;20.922;2022-09-09T06:53:19;100027.69;;;13.00;79.23
61697;BME280;47610;52.252;20.922;2022-09-09T06:56:21;100028.98;;;13.02;79.41
61697;BME280;47610;52.252;20.922;2022-09-09T06:59:09;100031.28;;;13.07;79.44
61697;BME280;47610;52.252;20.922;2022-09-09T07:01:56;100032.77;;;13.11;79.49
61697;BME280;47610;52.252;20.922;2022-09-09T07:04:42;100031.45;;;13.17;79.02
61697;BME280;47610;52.252;20.922;2022-09-09T07:07:30;100033.54;;;13.21;79.39
61697;BME280;47610;52.252;20.922;2022-09-09T07:10:17;100037.82;;;13.24;79.12
61697;BME280;47610;52.252;20.922;2022-09-09T07:13:04;100041.28;;;13.25;79.18
61697;BME280;47610;52.252;20.922;2022-09-09T07:15:54;100040.73;;;13.25;79.20
61697;BME280;47610;52.252;20.922;2022-09-09T07:18:41;100039.33;;;13.28;79.11
61697;BME280;47610;52.252;20.922;2022-09-09T07:21:30;100038.90;;;13.27;79.15
61697;BME280;47610;52.252;20.922;2022-09-09T07:24:17;100042.10;;;13.27;78.98
61697;BME280;47610;52.252;20.922;2022-09-09T07:27:04;100054.36;;;13.28;79.16
61697;BME280;47610;52.252;20.922;2022-09-09T07:29:51;100049.95;;;13.25;79.02
61697;BME280;47610;52.252;20.922;2022-09-09T07:32:38;100049.64;;;13.30;79.17
61697;BME280;47610;52.252;20.922;2022-09-09T07:35:25;100051.90;;;13.33;78.77
61697;BME280;47610;52.252;20.922;2022-09-09T07:38:12;100059.23;;;13.34;78.93
61697;BME280;47610;52.252;20.922;2022-09-09T07:41:06;100058.59;;;13.34;78.83
61697;BME280;47610;52.252;20.922;2022-09-09T07:43:55;100060.70;;;13.36;79.00
61697;BME280;47610;52.252;20.922;2022-09-09T07:46:43;100056.39;;;13.38;79.03
61697;BME280;47610;52.252;20.922;2022-09-09T07:49:30;100056.17;;;13.42;79.11
61697;BME280;47610;52.252;20.922;2022-09-09T07:52:17;100059.90;;;13.44;78.85
61697;BME280;47610;52.252;20.922;2022-09-09T07:55:06;100061.71;;;13.45;79.16
61697;BME280;47610;52.252;20.922;2022-09-09T07:57:53;100062.20;;;13.49;79.06
61697;BME280;47610;52.252;20.922;2022-09-09T08:00:42;100070.73;;;13.54;79.14
61697;BME280;47610;52.252;20.922;2022-09-09T08:03:29;100079.47;;;13.57;79.13
61697;BME280;47610;52.252;20.922;2022-09-09T08:06:15;100083.02;;;13.59;78.97
61697;BME280;47610;52.252;20.922;2022-09-09T08:09:03;100085.13;;;13.60;78.99
61697;BME280;47610;52.252;20.922;2022-09-09T08:11:50;100087.39;;;13.59;78.73
61697;BME280;47610;52.252;20.922;2022-09-09T08:14:38;100092.39;;;13.61;78.73
61697;BME280;47610;52.252;20.922;2022-09-09T08:17:26;100091.98;;;13.60;78.72
61697;BME280;47610;52.252;20.922;2022-09-09T08:20:13;100099.09;;;13.62;78.94
61697;BME280;47610;52.252;20.922;2022-09-09T08:23:00;100097.34;;;13.66;78.77
61697;BME280;47610;52.252;20.922;2022-09-09T08:25:47;100095.50;;;13.68;78.88
61697;BME280;47610;52.252;20.922;2022-09-09T08:28:34;100092.98;;;13.69;78.84
61697;BME280;47610;52.252;20.922;2022-09-09T08:31:26;100102.11;;;13.69;78.83
61697;BME280;47610;52.252;20.922;2022-09-09T08:34:14;100100.38;;;13.66;78.64
61697;BME280;47610;52.252;20.922;2022-09-09T08:37:02;100099.80;;;13.68;78.89
61697;BME280;47610;52.252;20.922;2022-09-09T08:39:48;100097.39;;;13.70;78.89
61697;BME280;47610;52.252;20.922;2022-09-09T08:42:39;100103.12;;;13.72;78.86
61697;BME280;47610;52.252;20.922;2022-09-09T08:45:33;100108.23;;;13.74;78.84
61697;BME280;47610;52.252;20.922;2022-09-09T08:48:37;100111.77;;;13.80;78.77
61697;BME280;47610;52.252;20.922;2022-09-09T08:51:29;100104.27;;;13.84;78.91
61697;BME280;47610;52.252;20.922;2022-09-09T08:54:17;100110.64;;;13.85;78.88
61697;BME280;47610;52.252;20.922;2022-09-09T08:57:17;100111.42;;;13.81;78.99
61697;BME280;47610;52.252;20.922;2022-09-09T09:00:11;100108.61;;;13.74;79.07
61697;BME280;47610;52.252;20.922;2022-09-09T09:03:06;100111.23;;;13.72;79.22
61697;BME280;47610;52.252;20.922;2022-09-09T09:06:04;100107.17;;;13.74;79.40
61697;BME280;47610;52.252;20.922;2022-09-09T09:09:00;100111.52;;;13.76;79.56
61697;BME280;47610;52.252;20.922;2022-09-09T09:11:49;100113.02;;;13.78;79.57
61697;BME280;47610;52.252;20.922;2022-09-09T09:14:39;100112.94;;;13.82;79.52
61697;BME280;47610;52.252;20.922;2022-09-09T09:17:29;100115.59;;;13.85;79.64
61697;BME280;47610;52.252;20.922;2022-09-09T09:20:27;100121.29;;;13.88;79.50
61697;BME280;47610;52.252;20.922;2022-09-09T09:23:21;100131.00;;;13.94;79.40
61697;BME280;47610;52.252;20.922;2022-09-09T09:26:10;100134.92;;;13.94;79.31
61697;BME280;47610;52.252;20.922;2022-09-09T09:28:58;100135.91;;;13.95;79.34
61697;BME280;47610;52.252;20.922;2022-09-09T09:31:51;100137.45;;;13.96;79.27
61697;BME280;47610;52.252;20.922;2022-09-09T09:34:38;100136.27;;;13.97;79.23
61697;BME280;47610;52.252;20.922;2022-09-09T09:37:28;100136.58;;;14.01;79.11
61697;BME280;47610;52.252;20.922;2022-09-09T09:40:18;100137.86;;;14.06;79.27
61697;BME280;47610;52.252;20.922;2022-09-09T09:43:05;100138.19;;;14.09;79.21
61697;BME280;47610;52.252;20.922;2022-09-09T09:45:52;100133.75;;;14.13;79.12
61697;BME280;47610;52.252;20.922;2022-09-09T09:48:40;100136.73;;;14.17;79.11
61697;BME280;47610;52.252;20.922;2022-09-09T09:51:27;100141.75;;;14.15;79.13
61697;BME280;47610;52.252;20.922;2022-09-09T09:54:25;100139.58;;;14.10;79.09
61697;BME280;47610;52.252;20.922;2022-09-09T09:57:15;100143.05;;;14.13;79.01
61697;BME280;47610;52.252;20.922;2022-09-09T10:00:12;100139.69;;;14.15;79.16
61697;BME280;47610;52.252;20.922;2022-09-09T10:03:02;100140.52;;;14.18;79.00
61697;BME280;47610;52.252;20.922;2022-09-09T10:05:59;100134.77;;;14.24;78.93
61697;BME280;47610;52.252;20.922;2022-09-09T10:08:47;100141.55;;;14.28;78.94
61697;BME280;47610;52.252;20.922;2022-09-09T10:11:44;100147.67;;;14.32;78.83
61697;BME280;47610;52.252;20.922;2022-09-09T10:14:40;100150.57;;;14.32;78.87
61697;BME280;47610;52.252;20.922;2022-09-09T10:17:39;100149.42;;;14.32;78.73
61697;BME280;47610;52.252;20.922;2022-09-09T10:20:37;100153.27;;;14.35;78.73
61697;BME280;47610;52.252;20.922;2022-09-09T10:23:44;100155.88;;;14.37;78.70
61697;BME280;47610;52.252;20.922;2022-09-09T10:26:42;100155.59;;;14.38;78.66
61697;BME280;47610;52.252;20.922;2022-09-09T10:29:43;100156.33;;;14.34;78.57
61697;BME280;47610;52.252;20.922;2022-09-09T10:32:39;100166.71;;;14.36;78.63
61697;BME280;47610;52.252;20.922;2022-09-09T10:35:30;100176.27;;;14.36;78.65
61697;BME280;47610;52.252;20.922;2022-09-09T10:38:23;100181.72;;;14.39;78.57
61697;BME280;47610;52.252;20.922;2022-09-09T10:41:21;100187.23;;;14.36;78.62
61697;BME280;47610;52.252;20.922;2022-09-09T10:44:42;100192.39;;;14.37;78.53
61697;BME280;47610;52.252;20.922;2022-09-09T10:51:00;100199.98;;;14.36;78.79
61697;BME280;47610;52.252;20.922;2022-09-09T10:54:08;100200.66;;;14.42;78.87
61697;BME280;47610;52.252;20.922;2022-09-09T10:57:03;100202.08;;;14.48;78.85
61697;BME280;47610;52.252;20.922;2022-09-09T10:59:55;100202.69;;;14.52;78.72
61697;BME280;47610;52.252;20.922;2022-09-09T11:02:45;100204.97;;;14.55;78.67
61697;BME280;47610;52.252;20.922;2022-09-09T11:05:38;100210.33;;;14.56;78.52
61697;BME280;47610;52.252;20.922;2022-09-09T11:08:30;100214.66;;;14.59;78.62
61697;BME280;47610;52.252;20.922;2022-09-09T11:11:24;100215.48;;;14.59;78.56
61697;BME280;47610;52.252;20.922;2022-09-09T11:14:19;100218.92;;;14.59;78.58
61697;BME280;47610;52.252;20.922;2022-09-09T11:17:12;100217.23;;;14.57;78.57
61697;BME280;47610;52.252;20.922;2022-09-09T11:20:02;100225.54;;;14.58;78.62
61697;BME280;47610;52.252;20.922;2022-09-09T11:22:53;100225.84;;;14.62;78.61
61697;BME280;47610;52.252;20.922;2022-09-09T11:25:47;100218.46;;;14.63;78.63
61697;BME280;47610;52.252;20.922;2022-09-09T11:28:45;100219.80;;;14.62;78.49
61697;BME280;47610;52.252;20.922;2022-09-09T11:31:46;100217.88;;;14.58;78.73
61697;BME280;47610;52.252;20.922;2022-09-09T11:34:53;100223.33;;;14.53;78.93
61697;BME280;47610;52.252;20.922;2022-09-09T11:38:05;100221.27;;;14.54;78.95
61697;BME280;47610;52.252;20.922;2022-09-09T11:41:02;100223.43;;;14.60;79.10
61697;BME280;47610;52.252;20.922;2022-09-09T11:43:52;100222.35;;;14.67;78.99
61697;BME280;47610;52.252;20.922;2022-09-09T11:46:40;100223.87;;;14.73;78.91
61697;BME280;47610;52.252;20.922;2022-09-09T11:49:30;100221.52;;;14.70;78.98
61697;BME280;47610;52.252;20.922;2022-09-09T11:52:39;100222.85;;;14.70;79.02
61697;BME280;47610;52.252;20.922;2022-09-09T11:55:28;100226.30;;;14.73;79.10
61697;BME280;47610;52.252;20.922;2022-09-09T11:58:19;100230.42;;;14.76;79.02
61697;BME280;47610;52.252;20.922;2022-09-09T12:01:24;100230.61;;;14.75;79.10
61697;BME280;47610;52.252;20.922;2022-09-09T12:04:32;100232.86;;;14.75;78.84
61697;BME280;47610;52.252;20.922;2022-09-09T12:07:31;100230.41;;;14.77;79.09
61697;BME280;47610;52.252;20.922;2022-09-09T12:10:26;100226.05;;;14.83;78.97
61697;BME280;47610;52.252;20.922;2022-09-09T12:13:20;100225.80;;;14.87;79.41
61697;BME280;47610;52.252;20.922;2022-09-09T12:16:05;100229.27;;;14.88;79.02
61697;BME280;47610;52.252;20.922;2022-09-09T12:19:18;100232.11;;;14.84;79.06
61697;BME280;47610;52.252;20.922;2022-09-09T12:22:09;100231.48;;;14.79;79.03
61697;BME280;47610;52.252;20.922;2022-09-09T12:25:14;100231.60;;;14.79;78.95
61697;BME280;47610;52.252;20.922;2022-09-09T12:28:09;100237.86;;;14.79;79.06
61697;BME280;47610;52.252;20.922;2022-09-09T12:31:02;100237.60;;;14.78;79.12
61697;BME280;47610;52.252;20.922;2022-09-09T12:33:52;100238.06;;;14.77;79.33
61697;BME280;47610;52.252;20.922;2022-09-09T12:36:41;100237.70;;;14.76;79.62
61697;BME280;47610;52.252;20.922;2022-09-09T12:39:35;100236.77;;;14.78;79.56
61697;BME280;47610;52.252;20.922;2022-09-09T12:42:28;100235.91;;;14.82;79.65
61697;BME280;47610;52.252;20.922;2022-09-09T12:45:20;100231.36;;;14.86;79.58
61697;BME280;47610;52.252;20.922;2022-09-09T12:48:09;100228.92;;;14.91;79.50
61697;BME280;47610;52.252;20.922;2022-09-09T12:50:57;100224.66;;;14.93;79.62
61697;BME280;47610;52.252;20.922;2022-09-09T12:53:45;100225.88;;;14.94;79.56
61697;BME280;47610;52.252;20.922;2022-09-09T12:56:34;100219.67;;;14.95;79.56
61697;BME280;47610;52.252;20.922;2022-09-09T12:59:26;100213.48;;;14.93;79.37
61697;BME280;47610;52.252;20.922;2022-09-09T13:02:20;100226.84;;;14.98;79.53
61697;BME280;47610;52.252;20.922;2022-09-09T13:05:17;100226.61;;;15.01;79.50
61697;BME280;47610;52.252;20.922;2022-09-09T13:08:05;100229.39;;;15.00;79.52
61697;BME280;47610;52.252;20.922;2022-09-09T13:10:55;100229.08;;;15.06;79.54
61697;BME280;47610;52.252;20.922;2022-09-09T13:13:50;100225.35;;;15.09;79.42
61697;BME280;47610;52.252;20.922;2022-09-09T13:16:37;100223.45;;;15.09;79.52
61697;BME280;47610;52.252;20.922;2022-09-09T13:19:24;100221.96;;;15.04;79.47
61697;BME280;47610;52.252;20.922;2022-09-09T13:22:18;100225.19;;;15.03;79.56
61697;BME280;47610;52.252;20.922;2022-09-09T13:25:19;100220.52;;;15.03;79.62
61697;BME280;47610;52.252;20.922;2022-09-09T13:28:20;100215.49;;;15.05;79.67
61697;BME280;47610;52.252;20.922;2022-09-09T13:31:21;100215.32;;;15.03;79.56
61697;BME280;47610;52.252;20.922;2022-09-09T13:34:13;100214.93;;;15.00;79.73
61697;BME280;47610;52.252;20.922;2022-09-09T13:37:02;100221.20;;;14.96;79.82
61697;BME280;47610;52.252;20.922;2022-09-09T13:39:53;100213.97;;;14.96;79.86
61697;BME280;47610;52.252;20.922;2022-09-09T13:42:42;100216.13;;;14.99;79.82
61697;BME280;47610;52.252;20.922;2022-09-09T13:45:29;100213.77;;;14.97;79.95
61697;BME280;47610;52.252;20.922;2022-09-09T13:48:20;100216.00;;;14.92;79.94
61697;BME280;47610;52.252;20.922;2022-09-09T13:54:08;100218.48;;;14.86;80.18
61697;BME280;47610;52.252;20.922;2022-09-09T13:56:55;100225.34;;;14.84;80.33
61697;BME280;47610;52.252;20.922;2022-09-09T13:59:42;100220.52;;;14.86;80.41
61697;BME280;47610;52.252;20.922;2022-09-09T14:02:29;100229.11;;;14.88;80.40
61697;BME280;47610;52.252;20.922;2022-09-09T14:05:16;100231.65;;;14.90;80.51
61697;BME280;47610;52.252;20.922;2022-09-09T14:08:04;100230.75;;;14.91;80.53
61697;BME280;47610;52.252;20.922;2022-09-09T14:10:52;100229.75;;;14.94;80.37
61697;BME280;47610;52.252;20.922;2022-09-09T14:13:39;100231.37;;;14.96;80.35
61697;BME280;47610;52.252;20.922;2022-09-09T14:16:26;100236.31;;;14.93;80.52
61697;BME280;47610;52.252;20.922;2022-09-09T14:19:13;100236.79;;;14.91;80.50
61697;BME280;47610;52.252;20.922;2022-09-09T14:22:00;100234.73;;;14.88;80.70
61697;BME280;47610;52.252;20.922;2022-09-09T14:24:47;100234.02;;;14.85;80.59
61697;BME280;47610;52.252;20.922;2022-09-09T14:27:35;100238.29;;;14.83;80.78
61697;BME280;47610;52.252;20.922;2022-09-09T14:30:22;100245.13;;;14.79;81.29
61697;BME280;47610;52.252;20.922;2022-09-09T14:33:09;100249.44;;;14.76;81.33
61697;BME280;47610;52.252;20.922;2022-09-09T14:35:58;100250.23;;;14.76;81.48
61697;BME280;47610;52.252;20.922;2022-09-09T14:38:44;100239.64;;;14.78;81.39
61697;BME280;47610;52.252;20.922;2022-09-09T14:41:31;100234.44;;;14.84;81.42
61697;BME280;47610;52.252;20.922;2022-09-09T14:44:18;100238.99;;;14.92;81.39
61697;BME280;47610;52.252;20.922;2022-09-09T14:47:05;100243.23;;;14.95;81.26
61697;BME280;47610;52.252;20.922;2022-09-09T14:49:52;100239.21;;;14.97;81.22
61697;BME280;47610;52.252;20.922;2022-09-09T14:52:38;100236.88;;;14.98;80.88
61697;BME280;47610;52.252;20.922;2022-09-09T14:55:25;100245.25;;;14.97;80.95